Time;durP1;ratioP1;P1;durP2;ratioP2;P2;SDS_P1;SDS_P2;PMS_P1;PMS_P2;Temp;Humidity;BMP_temperature;BMP_pressure;BME280_temperature;BME280_humidity;BME280_pressure;Samples;Min_cycle;Max_cycle;Signal;HPM_P1;HPM_P2
2022/08/20 00:00:36;;;;;;;10.73;8.80;;;17.20;99.90;;;;;;5035279;28;20542;-89
2022/08/20 00:03:13;;;;;;;12.53;11.23;;;17.20;99.90;;;;;;5034980;28;20224;-89
2022/08/20 00:05:46;;;;;;;12.60;9.97;;;17.20;99.90;;;;;;5034767;28;20482;-87
2022/08/20 00:08:13;;;;;;;12.87;10.97;;;17.20;99.90;;;;;;5034373;28;20406;-91
2022/08/20 00:10:42;;;;;;;13.60;11.33;;;17.20;99.90;;;;;;5034732;28;20436;-90
2022/08/20 00:13:10;;;;;;;11.67;9.77;;;17.20;99.90;;;;;;5049810;28;20457;-90
2022/08/20 00:15:37;;;;;;;11.20;9.73;;;17.20;99.90;;;;;;5049889;28;20488;-89
2022/08/20 00:18:04;;;;;;;11.73;9.37;;;17.20;99.90;;;;;;5017057;28;20513;-90
2022/08/20 00:20:38;;;;;;;11.77;8.60;;;17.20;99.90;;;;;;5034534;28;20431;-89
2022/08/20 00:23:04;;;;;;;13.50;10.27;;;17.30;99.90;;;;;;5034384;28;20494;-89
2022/08/20 00:25:30;;;;;;;13.70;9.67;;;17.30;99.90;;;;;;5034298;28;20482;-87
2022/08/20 00:27:57;;;;;;;13.67;10.60;;;17.40;99.90;;;;;;5049620;28;20892;-91
2022/08/20 00:30:24;;;;;;;12.57;10.20;;;17.40;99.90;;;;;;5049598;28;20446;-90
2022/08/20 00:32:56;;;;;;;12.83;9.57;;;17.40;99.90;;;;;;5034077;28;20420;-87
2022/08/20 00:35:26;;;;;;;11.10;10.00;;;17.50;99.90;;;;;;5034106;28;20451;-88
2022/08/20 00:37:53;;;;;;;15.20;10.27;;;17.50;99.90;;;;;;5034336;28;20417;-88
2022/08/20 00:40:22;;;;;;;14.50;11.57;;;17.50;99.90;;;;;;5034309;28;20421;-89
2022/08/20 00:42:52;;;;;;;16.77;12.53;;;17.60;99.90;;;;;;5033614;28;20767;-90
2022/08/20 00:45:19;;;;;;;15.80;10.93;;;17.60;99.90;;;;;;5034114;28;20419;-89
2022/08/20 00:47:45;;;;;;;17.93;11.20;;;17.60;99.90;;;;;;5049729;28;20517;-87
2022/08/20 00:50:17;;;;;;;11.17;9.50;;;17.60;99.90;;;;;;5034131;28;20598;-87
2022/08/20 00:52:46;;;;;;;14.53;10.40;;;17.60;99.90;;;;;;5033194;28;20176;-89
2022/08/20 00:55:12;;;;;;;10.20;8.93;;;17.60;99.90;;;;;;5034171;28;20405;-88
2022/08/20 00:57:44;;;;;;;12.53;11.20;;;17.60;99.90;;;;;;5033775;28;20412;-92
2022/08/20 01:00:15;;;;;;;14.80;11.40;;;17.60;99.90;;;;;;5016566;28;20176;-93
2022/08/20 01:02:41;;;;;;;15.77;11.37;;;17.70;99.90;;;;;;5034130;28;20415;-91
2022/08/20 01:05:09;;;;;;;12.80;10.73;;;17.70;99.90;;;;;;5034078;28;20431;-86
2022/08/20 01:07:36;;;;;;;12.10;10.70;;;17.70;99.90;;;;;;5033994;28;20429;-91
2022/08/20 01:10:09;;;;;;;11.90;10.63;;;17.60;99.90;;;;;;5033908;28;20435;-92
2022/08/20 01:12:37;;;;;;;10.27;8.80;;;17.70;99.90;;;;;;5033584;28;20470;-92
2022/08/20 01:15:04;;;;;;;11.03;9.40;;;17.70;99.90;;;;;;5032763;28;20486;-89
2022/08/20 01:17:35;;;;;;;11.50;9.80;;;17.70;99.90;;;;;;5033620;28;20412;-90
2022/08/20 01:20:06;;;;;;;13.17;10.17;;;17.70;99.90;;;;;;5033869;28;20428;-91
2022/08/20 01:25:52;;;;;;;9.83;8.07;;;17.60;99.90;;;;;;5034058;28;20480;-90
2022/08/20 01:28:24;;;;;;;13.77;10.60;;;17.70;99.90;;;;;;5032832;28;20418;-89
2022/08/20 01:30:50;;;;;;;12.47;11.17;;;17.70;99.90;;;;;;5033206;28;20412;-88
2022/08/20 01:33:17;;;;;;;12.97;9.83;;;17.60;99.90;;;;;;5015683;28;20774;-88
2022/08/20 01:35:43;;;;;;;11.73;9.37;;;17.60;99.90;;;;;;5033551;28;20479;-90
2022/08/20 01:38:10;;;;;;;11.77;8.57;;;17.60;99.90;;;;;;5048924;28;20526;-90
2022/08/20 01:40:56;;;;;;;12.53;9.40;;;17.60;99.90;;;;;;5033543;28;20441;-88
2022/08/20 01:43:22;;;;;;;12.27;9.27;;;17.60;99.90;;;;;;5015907;28;20470;-87
2022/08/20 01:45:49;;;;;;;11.10;9.00;;;17.60;99.90;;;;;;5033201;28;20460;-88
2022/08/20 01:48:16;;;;;;;10.70;8.70;;;17.60;99.90;;;;;;5033269;28;20922;-90
2022/08/20 01:50:45;;;;;;;12.77;9.00;;;17.60;99.90;;;;;;5033200;28;20833;-90
2022/08/20 01:53:18;;;;;;;10.03;8.13;;;17.60;99.90;;;;;;5033667;28;20854;-89
2022/08/20 01:55:44;;;;;;;11.83;8.53;;;17.50;99.90;;;;;;5032105;28;20427;-89
2022/08/20 01:58:10;;;;;;;14.53;8.90;;;17.60;99.90;;;;;;5032851;28;20462;-89
2022/08/20 02:00:35;;;;;;;9.17;8.00;;;17.60;99.90;;;;;;5033229;28;20184;-91
2022/08/20 02:03:02;;;;;;;10.43;8.13;;;17.60;99.90;;;;;;5033065;28;20201;-90
2022/08/20 02:05:29;;;;;;;11.80;8.20;;;17.60;99.90;;;;;;5036531;28;20283;-89
2022/08/20 02:07:54;;;;;;;8.23;6.87;;;17.70;99.90;;;;;;5036584;28;20506;-89
2022/08/20 02:10:22;;;;;;;11.27;7.80;;;17.70;99.90;;;;;;5036707;28;21027;-90
2022/08/20 02:12:48;;;;;;;10.40;7.80;;;17.60;99.90;;;;;;5036502;28;20192;-89
2022/08/20 02:15:14;;;;;;;10.97;8.40;;;17.70;99.90;;;;;;5036939;28;20486;-88
2022/08/20 02:17:40;;;;;;;11.00;8.27;;;17.60;99.90;;;;;;5036925;28;20259;-88
2022/08/20 02:20:12;;;;;;;11.00;8.13;;;17.70;99.90;;;;;;5036942;28;20420;-88
2022/08/20 02:22:47;;;;;;;9.57;7.30;;;17.70;99.90;;;;;;5036876;28;20402;-90
2022/08/20 02:25:14;;;;;;;11.70;7.87;;;17.70;99.90;;;;;;5019180;28;20423;-90
2022/08/20 02:27:43;;;;;;;9.03;6.17;;;17.70;99.90;;;;;;5018961;28;20470;-90
2022/08/20 02:30:24;;;;;;;9.63;8.37;;;17.70;99.90;;;;;;5052496;28;20424;-90
2022/08/20 02:32:50;;;;;;;8.13;6.30;;;17.70;99.90;;;;;;5036624;28;20797;-90
2022/08/20 02:35:17;;;;;;;7.10;5.93;;;17.70;99.90;;;;;;5036282;28;20469;-87
2022/08/20 02:37:44;;;;;;;7.50;6.47;;;17.70;99.90;;;;;;5018998;28;20717;-92
2022/08/20 02:40:14;;;;;;;6.83;4.93;;;17.60;99.90;;;;;;5036370;28;20416;-91
2022/08/20 02:42:42;;;;;;;5.47;4.70;;;17.60;99.90;;;;;;5035002;28;20432;-90
2022/08/20 02:45:10;;;;;;;5.37;4.10;;;17.60;99.90;;;;;;5036642;28;20515;-87
2022/08/20 02:47:36;;;;;;;4.90;3.37;;;17.60;99.90;;;;;;5036378;28;20415;-92
2022/08/20 02:50:03;;;;;;;5.70;4.27;;;17.60;99.90;;;;;;5036098;28;20457;-91
2022/08/20 02:52:28;;;;;;;4.67;4.20;;;17.60;99.90;;;;;;5036166;28;20406;-92
2022/08/20 02:54:54;;;;;;;5.47;4.00;;;17.60;99.90;;;;;;5036288;28;20740;-92
2022/08/20 02:57:20;;;;;;;5.70;3.83;;;17.60;99.90;;;;;;5036159;28;20178;-94
2022/08/20 02:59:46;;;;;;;6.57;4.70;;;17.60;99.90;;;;;;5018904;28;20259;-92
2022/08/20 03:02:13;;;;;;;7.23;4.00;;;17.60;99.90;;;;;;5036435;28;20165;-93
2022/08/20 03:04:39;;;;;;;6.13;3.87;;;17.60;99.90;;;;;;5034893;28;20957;-92
2022/08/20 03:07:06;;;;;;;6.97;4.00;;;17.60;99.90;;;;;;5036072;28;20764;-91
2022/08/20 03:09:32;;;;;;;5.63;4.57;;;17.60;99.90;;;;;;5036184;28;20422;-92
2022/08/20 03:11:58;;;;;;;3.97;2.77;;;17.60;99.90;;;;;;5035745;28;20415;-93
2022/08/20 03:14:23;;;;;;;3.47;2.50;;;17.60;99.90;;;;;;5036066;28;20518;-92
2022/08/20 03:16:50;;;;;;;4.63;3.00;;;17.60;99.90;;;;;;5035115;28;20501;-91
2022/08/20 03:19:16;;;;;;;4.40;2.90;;;17.60;99.90;;;;;;5035861;28;20265;-90
2022/08/20 03:21:41;;;;;;;3.83;1.90;;;17.60;99.90;;;;;;5018492;28;20490;-93
2022/08/20 03:24:07;;;;;;;3.07;2.20;;;17.60;99.90;;;;;;5035831;28;20202;-89
2022/08/20 03:26:33;;;;;;;2.87;2.17;;;17.60;99.90;;;;;;5035435;28;20582;-91
2022/08/20 03:28:58;;;;;;;4.70;2.40;;;17.50;99.90;;;;;;5018035;28;20429;-92
2022/08/20 03:31:24;;;;;;;2.53;2.00;;;17.40;99.90;;;;;;5035710;28;20173;-90
2022/08/20 03:33:49;;;;;;;3.10;1.80;;;17.40;99.90;;;;;;5018344;28;20279;-92
2022/08/20 03:36:15;;;;;;;3.60;1.80;;;17.40;99.90;;;;;;5018221;28;20604;-91
2022/08/20 03:38:40;;;;;;;2.53;1.30;;;17.40;99.90;;;;;;5035642;28;20183;-91
2022/08/20 03:41:06;;;;;;;4.00;2.10;;;17.40;99.90;;;;;;5035108;28;20212;-92
2022/08/20 03:43:32;;;;;;;3.13;2.13;;;17.40;99.90;;;;;;5035493;28;20297;-92
2022/08/20 03:45:58;;;;;;;3.03;2.43;;;17.50;99.90;;;;;;5035744;28;20178;-94
2022/08/20 03:48:24;;;;;;;2.00;1.70;;;17.40;99.90;;;;;;5018033;28;20438;-94
2022/08/20 03:50:50;;;;;;;2.50;1.70;;;17.40;99.90;;;;;;5035387;28;20480;-92
2022/08/20 03:53:16;;;;;;;2.37;1.70;;;17.50;99.90;;;;;;5017310;28;20423;-94
2022/08/20 03:55:47;;;;;;;4.77;1.83;;;17.40;99.90;;;;;;5035108;28;20207;-92
2022/08/20 03:58:14;;;;;;;2.37;1.20;;;17.40;99.90;;;;;;5050647;28;20423;-89
2022/08/20 04:00:43;;;;;;;3.73;2.53;;;17.40;99.90;;;;;;5034836;28;20495;-91
2022/08/20 04:03:09;;;;;;;3.60;1.90;;;17.40;99.90;;;;;;5034818;28;20848;-89
2022/08/20 04:05:39;;;;;;;5.90;2.17;;;17.40;99.90;;;;;;5050041;28;20451;-90
2022/08/20 04:08:10;;;;;;;5.00;1.97;;;17.50;99.90;;;;;;5050113;28;20472;-91
2022/08/20 04:10:37;;;;;;;5.50;2.30;;;17.40;99.90;;;;;;5034368;28;20454;-90
2022/08/20 04:13:04;;;;;;;3.30;2.00;;;17.40;99.90;;;;;;5034641;28;20763;-91
2022/08/20 04:15:31;;;;;;;3.30;2.67;;;17.40;99.90;;;;;;5050035;28;20499;-91
2022/08/20 04:17:57;;;;;;;3.33;1.90;;;17.40;99.90;;;;;;5034742;28;20420;-89
2022/08/20 04:20:24;;;;;;;3.30;1.40;;;17.40;99.90;;;;;;5049887;28;20429;-91
2022/08/20 04:22:52;;;;;;;3.97;2.60;;;17.40;99.90;;;;;;5034646;28;21014;-90
2022/08/20 04:25:18;;;;;;;4.50;3.90;;;17.40;99.90;;;;;;5034488;28;20464;-88
2022/08/20 04:27:45;;;;;;;5.27;3.83;;;17.50;99.90;;;;;;5033853;28;20437;-91
2022/08/20 04:30:13;;;;;;;5.10;3.10;;;17.50;99.90;;;;;;5034185;28;20261;-88
2022/08/20 04:32:40;;;;;;;4.20;3.00;;;17.60;99.90;;;;;;5034113;28;20420;-87
2022/08/20 04:35:07;;;;;;;4.20;3.00;;;17.60;99.90;;;;;;5016657;28;20517;-91
2022/08/20 04:37:33;;;;;;;5.87;3.47;;;17.60;99.90;;;;;;5034201;28;20772;-90
2022/08/20 04:42:54;;;;;;;5.47;3.43;;;17.70;99.90;;;;;;5034269;28;20574;-90
2022/08/20 04:45:20;;;;;;;6.60;4.33;;;17.80;99.90;;;;;;5034020;28;20415;-90
2022/08/20 04:47:47;;;;;;;8.97;6.17;;;17.90;99.90;;;;;;5034116;28;20543;-89
2022/08/20 04:50:13;;;;;;;8.27;5.80;;;17.90;99.90;;;;;;5033830;28;20487;-90
2022/08/20 04:52:39;;;;;;;6.67;4.90;;;18.00;99.90;;;;;;5016584;28;20771;-91
2022/08/20 04:55:06;;;;;;;10.03;6.63;;;18.00;99.90;;;;;;5032879;28;20778;-89
2022/08/20 04:57:35;;;;;;;8.93;5.33;;;18.00;99.90;;;;;;5015824;28;20176;-86
2022/08/20 05:00:12;;;;;;;8.40;6.37;;;18.10;99.90;;;;;;5033919;28;20412;-93
2022/08/20 05:02:38;;;;;;;10.33;5.60;;;18.10;99.90;;;;;;5034393;28;20416;-90
2022/08/20 05:05:07;;;;;;;7.40;4.67;;;18.20;99.90;;;;;;5034127;28;20538;-92
2022/08/20 05:07:39;;;;;;;8.50;5.67;;;18.20;99.90;;;;;;5034085;28;20166;-91
2022/08/20 05:10:05;;;;;;;11.63;6.87;;;18.20;99.90;;;;;;5034099;28;20416;-92
2022/08/20 05:12:30;;;;;;;6.77;5.37;;;18.20;99.90;;;;;;5033521;28;20765;-90
2022/08/20 05:14:57;;;;;;;9.40;6.03;;;18.30;99.90;;;;;;5033663;28;20445;-92
2022/08/20 05:17:22;;;;;;;8.90;5.27;;;18.30;99.90;;;;;;5033737;28;20422;-88
2022/08/20 05:19:50;;;;;;;7.73;5.83;;;18.30;99.90;;;;;;5033200;28;20208;-92
2022/08/20 05:22:17;;;;;;;8.57;5.47;;;18.30;99.90;;;;;;5033112;28;20188;-89
2022/08/20 05:24:42;;;;;;;9.97;6.67;;;18.40;99.90;;;;;;5033300;28;20529;-87
2022/08/20 05:27:08;;;;;;;5.60;3.90;;;18.40;99.90;;;;;;5015384;28;20432;-86
2022/08/20 05:29:34;;;;;;;7.40;5.33;;;18.40;99.90;;;;;;5015493;28;20269;-88
2022/08/20 05:31:59;;;;;;;7.97;5.20;;;18.40;99.90;;;;;;5033199;28;20630;-88
2022/08/20 05:34:25;;;;;;;9.10;5.80;;;18.50;99.90;;;;;;5033188;28;20257;-87
2022/08/20 05:36:53;;;;;;;6.53;4.63;;;18.50;99.90;;;;;;5033093;28;20552;-85
2022/08/20 05:39:21;;;;;;;8.13;5.37;;;18.50;99.90;;;;;;5034648;28;20181;-87
2022/08/20 05:41:49;;;;;;;8.47;6.17;;;18.70;99.90;;;;;;5037250;28;20431;-87
2022/08/20 05:44:15;;;;;;;5.70;3.40;;;18.70;99.90;;;;;;5036999;28;20479;-87
2022/08/20 05:46:42;;;;;;;9.57;5.73;;;18.70;99.90;;;;;;5037105;28;20518;-88
2022/08/20 05:49:15;;;;;;;8.27;5.90;;;18.80;99.90;;;;;;5037440;28;20206;-92
2022/08/20 05:51:42;;;;;;;7.13;5.53;;;18.80;99.90;;;;;;5038171;28;20470;-91
2022/08/20 05:54:08;;;;;;;5.47;4.70;;;18.90;99.90;;;;;;5058534;28;20416;-86
2022/08/20 05:56:34;;;;;;;6.50;4.87;;;19.00;99.90;;;;;;5056814;28;20434;-89
2022/08/20 05:59:03;;;;;;;5.90;4.37;;;19.00;99.90;;;;;;5056680;28;20474;-88
2022/08/20 06:01:31;;;;;;;10.87;6.20;;;19.20;99.90;;;;;;5038718;28;20439;-86
2022/08/20 06:06:41;;;;;;;8.27;5.37;;;19.60;99.90;;;;;;5056995;28;20396;-92
2022/08/20 06:09:06;;;;;;;5.40;4.30;;;19.70;99.90;;;;;;5040047;28;20477;-93
2022/08/20 06:11:32;;;;;;;8.47;5.50;;;19.70;99.90;;;;;;5057326;28;20962;-86
2022/08/20 06:13:58;;;;;;;5.50;4.00;;;19.60;99.90;;;;;;5057303;28;20174;-92
2022/08/20 06:16:24;;;;;;;6.83;5.13;;;19.50;99.90;;;;;;5058117;28;20433;-94
2022/08/20 06:18:49;;;;;;;9.10;5.23;;;19.50;99.90;;;;;;5056422;28;20185;-87
2022/08/20 06:21:15;;;;;;;7.27;4.60;;;19.50;99.90;;;;;;5056858;28;20169;-92
2022/08/20 06:23:41;;;;;;;7.60;5.53;;;19.50;99.90;;;;;;5056427;28;20202;-86
2022/08/20 06:26:08;;;;;;;7.20;4.97;;;19.60;99.90;;;;;;5039297;28;20201;-94
2022/08/20 06:28:34;;;;;;;5.17;3.90;;;19.80;99.90;;;;;;5039341;28;20938;-94
2022/08/20 06:30:59;;;;;;;6.00;4.67;;;20.00;99.90;;;;;;5057076;28;20412;-93
2022/08/20 06:33:25;;;;;;;6.73;4.23;;;20.10;99.90;;;;;;5056225;28;20417;-95
2022/08/20 06:35:50;;;;;;;6.27;4.67;;;20.10;99.90;;;;;;5057373;28;20672;-94
2022/08/20 06:38:16;;;;;;;7.53;4.07;;;20.00;99.90;;;;;;5057412;28;20178;-94
2022/08/20 06:40:41;;;;;;;6.70;4.93;;;20.00;99.90;;;;;;5057074;28;20167;-94
2022/08/20 06:43:08;;;;;;;8.03;5.20;;;20.00;99.90;;;;;;5056096;28;20515;-94
2022/08/20 06:45:34;;;;;;;4.93;3.60;;;20.00;99.90;;;;;;5056356;28;20707;-95
2022/08/20 06:48:09;;;;;;;5.23;3.97;;;20.00;99.90;;;;;;5055407;28;20516;-94
2022/08/20 06:50:38;;;;;;;5.77;4.33;;;20.00;99.90;;;;;;5048026;28;20511;-91
2022/08/20 06:53:09;;;;;;;6.77;3.93;;;20.00;99.90;;;;;;5036375;28;20421;-90
2022/08/20 06:55:42;;;;;;;4.90;4.17;;;20.10;99.90;;;;;;5053527;28;20410;-90
2022/08/20 06:58:11;;;;;;;5.30;4.17;;;20.20;99.90;;;;;;5040502;28;20424;-91
2022/08/20 07:00:39;;;;;;;7.97;3.87;;;20.30;99.90;;;;;;5037229;28;20426;-87
2022/08/20 07:03:05;;;;;;;8.87;4.83;;;20.40;99.90;;;;;;5035276;28;20835;-87
2022/08/20 07:05:34;;;;;;;5.53;3.60;;;20.50;99.90;;;;;;5017751;28;20525;-86
2022/08/20 07:08:00;;;;;;;5.40;4.40;;;20.70;99.90;;;;;;5017470;28;20312;-88
2022/08/20 07:10:27;;;;;;;4.03;3.23;;;20.90;99.90;;;;;;5035271;28;20418;-89
2022/08/20 07:12:53;;;;;;;4.80;3.73;;;21.00;99.90;;;;;;5035809;28;20415;-86
2022/08/20 07:15:20;;;;;;;5.63;4.00;;;21.10;99.90;;;;;;5035435;28;20776;-87
2022/08/20 07:17:58;;;;;;;6.07;3.70;;;21.20;99.90;;;;;;5050832;28;20173;-88
2022/08/20 07:20:24;;;;;;;4.27;3.87;;;21.10;99.90;;;;;;5052499;28;20430;-89
2022/08/20 07:22:51;;;;;;;5.27;3.67;;;21.10;99.90;;;;;;5051655;28;20412;-88
2022/08/20 07:25:19;;;;;;;5.50;3.40;;;21.00;99.90;;;;;;5035207;28;20423;-91
2022/08/20 07:27:48;;;;;;;4.93;3.37;;;21.00;99.90;;;;;;5035603;28;20415;-89
2022/08/20 07:33:05;;;;;;;5.73;2.87;;;21.20;99.90;;;;;;5036183;28;20929;-89
2022/08/20 07:35:31;;;;;;;4.60;3.40;;;21.30;99.90;;;;;;5036225;28;20494;-88
2022/08/20 07:37:56;;;;;;;5.30;3.50;;;21.50;99.90;;;;;;5043440;28;20212;-85
2022/08/20 07:40:28;;;;;;;5.30;2.27;;;21.50;99.90;;;;;;5045352;28;20186;-88
2022/08/20 07:42:55;;;;;;;4.17;3.03;;;21.60;99.90;;;;;;5045813;28;20182;-87
2022/08/20 07:45:21;;;;;;;3.60;2.97;;;21.60;99.90;;;;;;5050483;28;20430;-88
2022/08/20 07:47:48;;;;;;;4.00;2.50;;;21.60;99.90;;;;;;5039689;28;20778;-87
2022/08/20 07:50:18;;;;;;;3.87;3.10;;;21.70;99.90;;;;;;5034422;28;20963;-89
2022/08/20 07:52:44;;;;;;;2.70;2.20;;;21.60;99.90;;;;;;5034531;28;20458;-87
2022/08/20 07:55:13;;;;;;;5.10;2.80;;;21.70;99.90;;;;;;5034245;28;20479;-89
2022/08/20 07:57:39;;;;;;;3.83;2.50;;;21.70;99.90;;;;;;5034433;28;20427;-89
2022/08/20 08:00:07;;;;;;;3.90;3.00;;;22.00;99.90;;;;;;5034394;28;20526;-88
2022/08/20 08:02:34;;;;;;;4.43;3.30;;;22.00;99.90;;;;;;5033710;28;20424;-89
2022/08/20 08:05:00;;;;;;;3.80;2.67;;;21.80;99.90;;;;;;5034260;28;20471;-89
2022/08/20 08:07:26;;;;;;;2.70;2.10;;;21.90;99.90;;;;;;5034044;28;20979;-88
2022/08/20 08:09:52;;;;;;;2.60;1.27;;;22.60;99.90;;;;;;5033644;28;20478;-88
2022/08/20 08:12:19;;;;;;;2.63;2.10;;;22.40;99.90;;;;;;5034007;28;20420;-89
2022/08/20 08:14:46;;;;;;;2.10;1.60;;;22.10;99.90;;;;;;5016461;28;20798;-90
2022/08/20 08:17:13;;;;;;;1.90;1.43;;;21.90;99.90;;;;;;5034066;28;20475;-89
2022/08/20 08:19:42;;;;;;;4.00;1.50;;;21.80;99.90;;;;;;5033960;28;20462;-88
2022/08/20 08:22:11;;;;;;;1.40;0.70;;;22.10;99.90;;;;;;5033756;28;20452;-88
2022/08/20 08:24:40;;;;;;;2.93;1.67;;;22.90;99.90;;;;;;5033731;28;20472;-89
2022/08/20 08:27:09;;;;;;;1.57;0.93;;;25.40;99.90;;;;;;5033523;28;20417;-89
2022/08/20 08:29:35;;;;;;;2.07;1.10;;;25.70;1.00;;;;;;5016056;28;20473;-88
2022/08/20 08:32:03;;;;;;;3.20;0.30;;;25.60;1.00;;;;;;5034256;28;20467;-89
2022/08/20 08:34:30;;;;;;;1.23;0.57;;;25.50;1.00;;;;;;5033648;28;20425;-90
2022/08/20 08:36:57;;;;;;;1.40;0.97;;;25.60;1.00;;;;;;5049173;28;20435;-90
2022/08/20 08:39:23;;;;;;;1.93;0.60;;;24.80;99.90;;;;;;5034189;28;20512;-92
2022/08/20 08:41:50;;;;;;;1.53;0.80;;;24.60;99.90;;;;;;5016400;28;20940;-92
2022/08/20 08:44:23;;;;;;;0.80;0.30;;;24.00;99.90;;;;;;5035656;28;20213;-92
2022/08/20 08:46:56;;;;;;;1.30;0.90;;;26.50;1.00;;;;;;5034359;28;20467;-92
2022/08/20 08:49:29;;;;;;;2.00;0.97;;;27.00;1.00;;;;;;5034186;28;20752;-91
2022/08/20 08:52:03;;;;;;;2.07;0.50;;;26.50;1.00;;;;;;5049340;28;20473;-89
2022/08/20 08:54:30;;;;;;;4.17;0.90;;;27.40;1.00;;;;;;5033222;28;20766;-92
2022/08/20 08:56:57;;;;;;;1.63;0.40;;;29.00;99.90;;;;;;5049433;28;20417;-90
2022/08/20 08:59:23;;;;;;;0.53;0.30;;;28.50;99.90;;;;;;5034316;28;20424;-91
2022/08/20 09:01:52;;;;;;;3.23;0.40;;;28.10;99.90;;;;;;5016539;28;20777;-93
2022/08/20 09:04:20;;;;;;;1.40;0.30;;;27.70;99.90;;;;;;5049517;28;20469;-93
2022/08/20 09:06:48;;;;;;;2.27;0.67;;;26.60;99.90;;;;;;5034224;28;20904;-92
2022/08/20 09:09:21;;;;;;;1.10;0.50;;;26.10;99.90;;;;;;5049530;28;20413;-91
2022/08/20 09:11:51;;;;;;;1.70;0.63;;;25.70;99.90;;;;;;5049295;28;20413;-92
2022/08/20 09:14:17;;;;;;;2.20;0.50;;;25.90;1.00;;;;;;5033227;28;20943;-91
2022/08/20 09:16:42;;;;;;;0.77;0.30;;;25.70;99.90;;;;;;5016889;28;20417;-91
2022/08/20 09:19:08;;;;;;;1.70;0.43;;;25.40;1.00;;;;;;5033975;28;20996;-92
2022/08/20 09:21:33;;;;;;;1.27;0.37;;;25.00;99.90;;;;;;5034110;28;20654;-92
2022/08/20 09:23:59;;;;;;;2.40;0.80;;;24.90;99.90;;;;;;5033589;28;20206;-91
2022/08/20 09:26:24;;;;;;;1.83;0.47;;;24.60;99.90;;;;;;5032966;28;20162;-90
2022/08/20 09:28:50;;;;;;;2.17;0.67;;;24.40;83.40;;;;;;5033371;28;20170;-89
2022/08/20 09:31:15;;;;;;;1.53;0.63;;;24.30;1.00;;;;;;5033365;28;20174;-90
2022/08/20 09:33:41;;;;;;;2.17;0.53;;;24.20;1.00;;;;;;5033501;28;20174;-90
2022/08/20 09:36:06;;;;;;;1.30;0.50;;;24.20;1.00;;;;;;5033528;28;20179;-90
2022/08/20 09:38:32;;;;;;;1.53;0.80;;;24.30;1.00;;;;;;5033496;28;20257;-90
2022/08/20 09:40:57;;;;;;;0.80;0.30;;;24.40;1.00;;;;;;5015249;28;20228;-90
2022/08/20 09:43:23;;;;;;;2.80;0.60;;;25.20;56.20;;;;;;5015891;28;20203;-92
2022/08/20 09:45:51;;;;;;;1.00;0.40;;;25.00;1.00;;;;;;5033688;28;20206;-92
2022/08/20 09:48:19;;;;;;;3.10;0.40;;;24.70;1.00;;;;;;5033612;28;20181;-90
2022/08/20 09:50:47;;;;;;;1.90;0.33;;;24.50;1.00;;;;;;5025485;28;20474;-90
2022/08/20 09:53:14;;;;;;;1.77;0.30;;;24.40;1.00;;;;;;5068860;28;20416;-90
2022/08/20 09:55:45;;;;;;;1.07;0.40;;;25.30;99.90;;;;;;5035319;28;20478;-90
2022/08/20 09:58:18;;;;;;;1.73;0.53;;;26.50;99.90;;;;;;5053228;28;20416;-91
2022/08/20 10:00:44;;;;;;;1.63;0.67;;;27.50;99.90;;;;;;5068804;28;20413;-90
2022/08/20 10:03:10;;;;;;;1.33;0.43;;;27.90;99.90;;;;;;5051932;28;20419;-92
2022/08/20 10:05:35;;;;;;;1.30;0.60;;;28.70;99.90;;;;;;5035339;28;20201;-92
2022/08/20 10:08:05;;;;;;;1.43;0.53;;;28.80;99.90;;;;;;5052337;28;20170;-91
2022/08/20 10:10:31;;;;;;;1.17;0.47;;;28.60;99.90;;;;;;5035151;28;20177;-91
2022/08/20 10:12:56;;;;;;;0.87;0.30;;;27.60;99.90;;;;;;5053256;28;20415;-91
2022/08/20 10:15:22;;;;;;;1.23;0.57;;;26.80;99.90;;;;;;5035689;28;20174;-94
2022/08/20 10:17:47;;;;;;;2.00;0.50;;;26.30;99.90;;;;;;5035295;28;20173;-93
2022/08/20 10:20:14;;;;;;;2.73;0.93;;;26.10;99.90;;;;;;5035398;28;20618;-89
2022/08/20 10:22:40;;;;;;;1.63;0.50;;;26.30;99.90;;;;;;5053070;28;20212;-91
2022/08/20 10:25:07;;;;;;;1.30;0.50;;;26.60;99.90;;;;;;5036374;28;20471;-89
2022/08/20 10:27:32;;;;;;;1.90;0.40;;;26.70;99.90;;;;;;5056707;28;20412;-89
2022/08/20 10:29:58;;;;;;;1.93;0.30;;;26.60;99.90;;;;;;5039006;28;20423;-91
2022/08/20 10:32:24;;;;;;;1.87;0.50;;;27.00;99.90;;;;;;5038715;28;20170;-91
2022/08/20 10:34:49;;;;;;;3.23;1.00;;;26.60;99.90;;;;;;5056421;28;20169;-91
2022/08/20 10:37:18;;;;;;;1.10;0.40;;;26.70;99.90;;;;;;5037699;28;20212;-91
2022/08/20 10:39:46;;;;;;;1.67;0.30;;;26.40;99.90;;;;;;5034967;28;20174;-91
2022/08/20 10:42:12;;;;;;;1.33;0.30;;;26.10;99.90;;;;;;5035279;28;20421;-89
2022/08/20 10:44:38;;;;;;;1.73;0.77;;;25.90;99.90;;;;;;5051556;28;20468;-90
2022/08/20 10:47:31;;;;;;;2.87;0.63;;;26.00;99.90;;;;;;5039402;28;20217;-91
2022/08/20 10:50:00;;;;;;;1.47;0.40;;;26.00;99.90;;;;;;5039365;28;20445;-90
2022/08/20 10:52:26;;;;;;;1.03;0.30;;;26.00;99.90;;;;;;5029136;28;20410;-89
2022/08/20 10:54:52;;;;;;;2.27;0.50;;;26.10;99.90;;;;;;5056943;28;20424;-90
2022/08/20 10:57:21;;;;;;;0.80;0.33;;;26.00;99.90;;;;;;5028535;28;20572;-90
2022/08/20 10:59:49;;;;;;;0.97;0.40;;;26.00;99.90;;;;;;5022946;28;20420;-90
2022/08/20 11:02:15;;;;;;;2.93;0.57;;;26.40;99.90;;;;;;5030949;28;20420;-90
2022/08/20 11:04:41;;;;;;;1.70;0.30;;;26.60;99.90;;;;;;5023673;28;20464;-91
2022/08/20 11:07:30;;;;;;;3.07;0.60;;;26.40;99.90;;;;;;5048395;28;20404;-91
2022/08/20 11:09:57;;;;;;;2.10;0.40;;;26.30;99.90;;;;;;5026289;28;20656;-93
2022/08/20 11:12:22;;;;;;;3.33;0.47;;;26.10;99.90;;;;;;5024101;28;20435;-92
2022/08/20 11:14:50;;;;;;;1.63;0.40;;;25.90;99.90;;;;;;5020679;28;20433;-93
2022/08/20 11:17:22;;;;;;;1.17;0.30;;;25.70;99.90;;;;;;5018971;28;20460;-93
2022/08/20 11:19:48;;;;;;;1.97;0.67;;;25.60;99.90;;;;;;5036056;28;20445;-92
2022/08/20 11:22:14;;;;;;;2.83;0.70;;;25.30;99.90;;;;;;5036818;28;20489;-91
2022/08/20 11:24:40;;;;;;;2.63;0.70;;;25.30;99.90;;;;;;5036040;28;20221;-91
2022/08/20 11:27:09;;;;;;;1.73;0.40;;;25.20;99.90;;;;;;5027205;28;20435;-94
2022/08/20 11:29:36;;;;;;;1.47;0.43;;;25.10;99.90;;;;;;5037449;28;20186;-91
2022/08/20 11:32:03;;;;;;;2.10;0.80;;;25.30;99.90;;;;;;5035048;28;20413;-93
2022/08/20 11:34:28;;;;;;;2.40;0.70;;;25.30;99.90;;;;;;5018323;28;20444;-92
2022/08/20 11:36:54;;;;;;;1.50;0.50;;;25.20;99.90;;;;;;5017225;28;20909;-91
2022/08/20 11:39:19;;;;;;;2.97;0.50;;;25.10;99.90;;;;;;5017836;28;20190;-90
2022/08/20 11:41:45;;;;;;;2.50;1.00;;;25.40;99.90;;;;;;5035889;28;20174;-92
2022/08/20 11:44:14;;;;;;;1.30;0.30;;;25.30;99.90;;;;;;5017730;28;20360;-93
2022/08/20 11:46:39;;;;;;;2.03;0.50;;;25.40;99.90;;;;;;5017852;28;20178;-92
2022/08/20 11:49:05;;;;;;;2.03;0.70;;;25.40;99.90;;;;;;5018014;28;20440;-93
2022/08/20 11:51:30;;;;;;;1.10;0.80;;;25.60;99.90;;;;;;5017894;28;20579;-92
2022/08/20 11:53:56;;;;;;;1.03;0.40;;;26.30;99.90;;;;;;5018061;28;20656;-93
2022/08/20 11:56:30;;;;;;;1.37;0.87;;;26.80;99.90;;;;;;5018046;28;20170;-93
2022/08/20 11:58:56;;;;;;;5.20;0.93;;;27.60;99.90;;;;;;5017759;28;20204;-93
2022/08/20 12:01:21;;;;;;;1.30;0.37;;;27.60;99.90;;;;;;5017892;28;20433;-93
2022/08/20 12:03:47;;;;;;;2.20;0.50;;;27.50;99.90;;;;;;5017945;28;20228;-92
2022/08/20 12:06:13;;;;;;;2.50;0.63;;;26.80;99.90;;;;;;5018350;28;20217;-91
2022/08/20 12:08:38;;;;;;;1.03;0.40;;;26.50;99.90;;;;;;5017823;28;20174;-92
2022/08/20 12:11:04;;;;;;;3.60;0.43;;;26.00;99.90;;;;;;5017301;28;20189;-93
2022/08/20 12:13:34;;;;;;;1.30;0.30;;;25.80;99.90;;;;;;5035322;28;20243;-91
2022/08/20 12:16:00;;;;;;;1.70;0.40;;;25.60;99.90;;;;;;5017620;28;20178;-93
2022/08/20 12:18:25;;;;;;;1.17;0.67;;;25.70;99.90;;;;;;5034860;28;20486;-92
2022/08/20 12:20:51;;;;;;;1.17;0.40;;;26.00;99.90;;;;;;5017321;28;20494;-92
2022/08/20 12:23:16;;;;;;;1.20;0.40;;;26.70;99.90;;;;;;5017348;28;20657;-93
2022/08/20 12:25:42;;;;;;;1.93;0.70;;;26.90;99.90;;;;;;5017090;28;20658;-93
2022/08/20 12:28:10;;;;;;;1.57;0.47;;;27.00;99.90;;;;;;5017175;28;20178;-92
2022/08/20 12:30:36;;;;;;;4.00;0.60;;;28.00;99.90;;;;;;5018709;28;20429;-93
2022/08/20 12:33:01;;;;;;;1.90;0.50;;;28.50;99.90;;;;;;5018140;28;20423;-94
2022/08/20 12:35:27;;;;;;;1.63;0.30;;;28.50;94.70;;;;;;5017612;28;20358;-95
2022/08/20 12:37:53;;;;;;;3.53;0.53;;;27.90;93.40;;;;;;5025736;28;20173;-92
2022/08/20 12:40:22;;;;;;;1.37;0.60;;;27.60;95.60;;;;;;5052847;28;20998;-93
2022/08/20 12:42:48;;;;;;;2.03;0.70;;;27.40;92.20;;;;;;5053805;28;20174;-93
2022/08/20 12:45:14;;;;;;;1.47;0.50;;;27.10;84.10;;;;;;5053271;28;20475;-93
2022/08/20 12:47:43;;;;;;;1.73;0.20;;;27.00;99.90;;;;;;5056186;28;20228;-92
2022/08/20 12:50:19;;;;;;;4.20;0.30;;;26.80;93.60;;;;;;5053046;28;20967;-93
2022/08/20 12:52:46;;;;;;;0.87;0.27;;;27.00;99.90;;;;;;5053507;28;20411;-93
2022/08/20 12:55:15;;;;;;;2.13;0.40;;;27.10;97.50;;;;;;5053970;28;20412;-93
2022/08/20 12:57:49;;;;;;;1.00;0.30;;;26.80;96.40;;;;;;5054116;28;20431;-94